sensor_id;sensor_type;location;lat;lon;timestamp;temperature;humidity
71994;DHT22;59861;50.268;8.648;2023-04-25T00:02:17;16.90;61.80
71994;DHT22;59861;50.268;8.648;2023-04-25T00:04:45;16.90;61.80
71994;DHT22;59861;50.268;8.648;2023-04-25T00:07:13;16.90;61.80
71994;DHT22;59861;50.268;8.648;2023-04-25T00:09:41;16.90;61.80
71994;DHT22;59861;50.268;8.648;2023-04-25T00:12:08;16.90;61.60
71994;DHT22;59861;50.268;8.648;2023-04-25T00:14:35;16.90;61.60
71994;DHT22;59861;50.268;8.648;2023-04-25T00:17:02;16.90;61.60
71994;DHT22;59861;50.268;8.648;2023-04-25T00:19:31;16.90;61.70
71994;DHT22;59861;50.268;8.648;2023-04-25T00:22:00;16.90;61.60
71994;DHT22;59861;50.268;8.648;2023-04-25T00:24:27;16.90;61.60
71994;DHT22;59861;50.268;8.648;2023-04-25T00:26:53;16.90;61.60
71994;DHT22;59861;50.268;8.648;2023-04-25T00:29:20;16.90;61.50
71994;DHT22;59861;50.268;8.648;2023-04-25T00:31:47;16.80;61.50
71994;DHT22;59861;50.268;8.648;2023-04-25T00:34:14;16.80;61.40
71994;DHT22;59861;50.268;8.648;2023-04-25T00:36:41;16.80;61.50
71994;DHT22;59861;50.268;8.648;2023-04-25T00:39:07;16.80;61.40
71994;DHT22;59861;50.268;8.648;2023-04-25T00:41:34;16.90;61.50
71994;DHT22;59861;50.268;8.648;2023-04-25T00:44:01;16.80;61.40
71994;DHT22;59861;50.268;8.648;2023-04-25T00:46:29;16.80;61.40
71994;DHT22;59861;50.268;8.648;2023-04-25T00:48:56;16.80;61.30
71994;DHT22;59861;50.268;8.648;2023-04-25T00:51:23;16.90;61.30
71994;DHT22;59861;50.268;8.648;2023-04-25T00:53:52;16.90;61.30
71994;DHT22;59861;50.268;8.648;2023-04-25T00:56:19;16.80;61.30
71994;DHT22;59861;50.268;8.648;2023-04-25T00:58:47;16.80;61.20
71994;DHT22;59861;50.268;8.648;2023-04-25T01:01:14;16.80;61.20
71994;DHT22;59861;50.268;8.648;2023-04-25T01:03:42;16.80;61.20
71994;DHT22;59861;50.268;8.648;2023-04-25T01:06:10;16.80;61.20
71994;DHT22;59861;50.268;8.648;2023-04-25T01:08:38;16.80;61.10
71994;DHT22;59861;50.268;8.648;2023-04-25T01:11:05;16.80;61.20
71994;DHT22;59861;50.268;8.648;2023-04-25T01:13:32;16.80;60.30
71994;DHT22;59861;50.268;8.648;2023-04-25T01:15:59;16.80;62.10
71994;DHT22;59861;50.268;8.648;2023-04-25T01:18:27;16.80;61.10
71994;DHT22;59861;50.268;8.648;2023-04-25T01:20:54;16.80;61.10
71994;DHT22;59861;50.268;8.648;2023-04-25T01:23:22;16.70;61.00
71994;DHT22;59861;50.268;8.648;2023-04-25T01:25:49;16.80;61.10
71994;DHT22;59861;50.268;8.648;2023-04-25T01:28:16;16.70;61.00
71994;DHT22;59861;50.268;8.648;2023-04-25T01:30:43;16.80;61.10
71994;DHT22;59861;50.268;8.648;2023-04-25T01:33:11;16.80;61.10
71994;DHT22;59861;50.268;8.648;2023-04-25T01:35:38;16.70;61.00
71994;DHT22;59861;50.268;8.648;2023-04-25T01:38:06;16.70;60.90
71994;DHT22;59861;50.268;8.648;2023-04-25T01:40:33;16.70;61.00
71994;DHT22;59861;50.268;8.648;2023-04-25T01:43:00;16.70;61.00
71994;DHT22;59861;50.268;8.648;2023-04-25T01:45:27;16.70;61.00
71994;DHT22;59861;50.268;8.648;2023-04-25T01:47:54;16.70;61.00
71994;DHT22;59861;50.268;8.648;2023-04-25T01:50:23;16.70;61.00
71994;DHT22;59861;50.268;8.648;2023-04-25T01:52:49;16.70;61.00
71994;DHT22;59861;50.268;8.648;2023-04-25T01:55:16;16.70;60.90
71994;DHT22;59861;50.268;8.648;2023-04-25T01:57:43;16.70;60.80
71994;DHT22;59861;50.268;8.648;2023-04-25T02:00:10;16.70;60.90
71994;DHT22;59861;50.268;8.648;2023-04-25T02:02:37;16.70;60.90
71994;DHT22;59861;50.268;8.648;2023-04-25T02:05:04;16.70;60.90
71994;DHT22;59861;50.268;8.648;2023-04-25T02:07:31;16.70;60.90
71994;DHT22;59861;50.268;8.648;2023-04-25T02:09:58;16.70;60.80
71994;DHT22;59861;50.268;8.648;2023-04-25T02:12:26;16.60;60.80
71994;DHT22;59861;50.268;8.648;2023-04-25T02:14:53;16.70;60.80
71994;DHT22;59861;50.268;8.648;2023-04-25T02:17:20;16.70;60.80
71994;DHT22;59861;50.268;8.648;2023-04-25T02:19:47;16.70;60.80
71994;DHT22;59861;50.268;8.648;2023-04-25T02:22:14;16.60;60.80
71994;DHT22;59861;50.268;8.648;2023-04-25T02:24:41;16.60;60.80
71994;DHT22;59861;50.268;8.648;2023-04-25T02:27:08;16.60;60.70
71994;DHT22;59861;50.268;8.648;2023-04-25T02:29:34;16.60;60.70
71994;DHT22;59861;50.268;8.648;2023-04-25T02:32:01;16.60;61.10
71994;DHT22;59861;50.268;8.648;2023-04-25T02:34:28;16.60;60.70
71994;DHT22;59861;50.268;8.648;2023-04-25T02:36:55;16.60;60.70
71994;DHT22;59861;50.268;8.648;2023-04-25T02:39:22;16.60;60.60
71994;DHT22;59861;50.268;8.648;2023-04-25T02:41:51;16.60;60.60
71994;DHT22;59861;50.268;8.648;2023-04-25T02:44:18;16.60;60.60
71994;DHT22;59861;50.268;8.648;2023-04-25T02:46:44;16.60;60.60
71994;DHT22;59861;50.268;8.648;2023-04-25T02:49:11;16.60;60.60
71994;DHT22;59861;50.268;8.648;2023-04-25T02:51:38;16.60;60.60
71994;DHT22;59861;50.268;8.648;2023-04-25T02:54:05;16.60;60.60
71994;DHT22;59861;50.268;8.648;2023-04-25T02:56:32;16.60;60.70
71994;DHT22;59861;50.268;8.648;2023-04-25T02:58:59;16.60;60.60
71994;DHT22;59861;50.268;8.648;2023-04-25T03:01:25;16.50;60.50
71994;DHT22;59861;50.268;8.648;2023-04-25T03:03:52;16.50;60.60
71994;DHT22;59861;50.268;8.648;2023-04-25T03:06:19;16.50;60.50
71994;DHT22;59861;50.268;8.648;2023-04-25T03:08:46;16.60;60.70
71994;DHT22;59861;50.268;8.648;2023-04-25T03:11:13;16.50;60.50
71994;DHT22;59861;50.268;8.648;2023-04-25T03:13:39;16.60;60.60
71994;DHT22;59861;50.268;8.648;2023-04-25T03:16:06;16.50;60.50
71994;DHT22;59861;50.268;8.648;2023-04-25T03:18:33;16.50;60.50
71994;DHT22;59861;50.268;8.648;2023-04-25T03:21:00;16.50;60.50
71994;DHT22;59861;50.268;8.648;2023-04-25T03:23:27;16.50;60.50
71994;DHT22;59861;50.268;8.648;2023-04-25T03:25:54;16.50;60.50
71994;DHT22;59861;50.268;8.648;2023-04-25T03:28:21;16.50;60.50
71994;DHT22;59861;50.268;8.648;2023-04-25T03:30:48;16.50;60.50
71994;DHT22;59861;50.268;8.648;2023-04-25T03:33:15;16.50;60.50
71994;DHT22;59861;50.268;8.648;2023-04-25T03:35:42;16.50;60.10
71994;DHT22;59861;50.268;8.648;2023-04-25T03:38:09;16.50;60.40
71994;DHT22;59861;50.268;8.648;2023-04-25T03:40:35;16.50;60.40
71994;DHT22;59861;50.268;8.648;2023-04-25T03:43:02;16.50;60.40
71994;DHT22;59861;50.268;8.648;2023-04-25T03:45:29;16.40;60.40
71994;DHT22;59861;50.268;8.648;2023-04-25T03:47:56;16.50;60.40
71994;DHT22;59861;50.268;8.648;2023-04-25T03:50:23;16.40;60.40
71994;DHT22;59861;50.268;8.648;2023-04-25T03:52:50;16.40;60.50
71994;DHT22;59861;50.268;8.648;2023-04-25T03:55:16;16.40;60.30
71994;DHT22;59861;50.268;8.648;2023-04-25T03:57:43;16.40;60.30
71994;DHT22;59861;50.268;8.648;2023-04-25T04:00:10;16.50;60.40
71994;DHT22;59861;50.268;8.648;2023-04-25T04:02:37;16.50;60.50
71994;DHT22;59861;50.268;8.648;2023-04-25T04:05:04;16.50;60.50
71994;DHT22;59861;50.268;8.648;2023-04-25T04:07:31;16.40;60.60
71994;DHT22;59861;50.268;8.648;2023-04-25T04:09:59;16.40;60.70
71994;DHT22;59861;50.268;8.648;2023-04-25T04:12:25;16.50;60.80
71994;DHT22;59861;50.268;8.648;2023-04-25T04:14:52;16.50;60.80
71994;DHT22;59861;50.268;8.648;2023-04-25T04:17:19;16.50;60.70
71994;DHT22;59861;50.268;8.648;2023-04-25T04:19:46;16.50;60.70
71994;DHT22;59861;50.268;8.648;2023-04-25T04:22:13;16.50;60.70
71994;DHT22;59861;50.268;8.648;2023-04-25T04:24:40;16.50;60.60
71994;DHT22;59861;50.268;8.648;2023-04-25T04:27:08;16.50;60.70
71994;DHT22;59861;50.268;8.648;2023-04-25T04:29:35;16.50;60.60
71994;DHT22;59861;50.268;8.648;2023-04-25T04:32:02;16.50;60.60
71994;DHT22;59861;50.268;8.648;2023-04-25T04:34:29;16.50;60.60
71994;DHT22;59861;50.268;8.648;2023-04-25T04:36:57;16.60;60.60
71994;DHT22;59861;50.268;8.648;2023-04-25T04:39:23;16.50;60.60
71994;DHT22;59861;50.268;8.648;2023-04-25T04:41:50;16.60;60.60
71994;DHT22;59861;50.268;8.648;2023-04-25T04:44:17;16.60;60.70
71994;DHT22;59861;50.268;8.648;2023-04-25T04:46:44;16.60;60.70
71994;DHT22;59861;50.268;8.648;2023-04-25T04:49:12;16.60;60.70
71994;DHT22;59861;50.268;8.648;2023-04-25T04:51:42;16.60;60.70
71994;DHT22;59861;50.268;8.648;2023-04-25T04:54:12;16.60;60.70
71994;DHT22;59861;50.268;8.648;2023-04-25T04:56:39;16.60;60.60
71994;DHT22;59861;50.268;8.648;2023-04-25T04:59:07;16.70;61.60
71994;DHT22;59861;50.268;8.648;2023-04-25T05:01:34;16.60;60.60
71994;DHT22;59861;50.268;8.648;2023-04-25T05:04:04;16.70;60.70
71994;DHT22;59861;50.268;8.648;2023-04-25T05:06:32;16.70;60.70
71994;DHT22;59861;50.268;8.648;2023-04-25T05:08:59;16.70;61.00
71994;DHT22;59861;50.268;8.648;2023-04-25T05:11:25;16.70;60.70
71994;DHT22;59861;50.268;8.648;2023-04-25T05:13:52;16.70;60.70
71994;DHT22;59861;50.268;8.648;2023-04-25T05:16:19;16.70;60.60
71994;DHT22;59861;50.268;8.648;2023-04-25T05:18:47;16.70;60.60
71994;DHT22;59861;50.268;8.648;2023-04-25T05:21:13;16.70;60.60
71994;DHT22;59861;50.268;8.648;2023-04-25T05:23:40;16.70;60.70
71994;DHT22;59861;50.268;8.648;2023-04-25T05:26:07;16.70;60.50
71994;DHT22;59861;50.268;8.648;2023-04-25T05:28:36;16.70;60.50
71994;DHT22;59861;50.268;8.648;2023-04-25T05:31:03;16.70;60.50
71994;DHT22;59861;50.268;8.648;2023-04-25T05:33:30;16.70;60.50
71994;DHT22;59861;50.268;8.648;2023-04-25T05:35:56;16.70;60.50
71994;DHT22;59861;50.268;8.648;2023-04-25T05:38:23;16.70;60.50
71994;DHT22;59861;50.268;8.648;2023-04-25T05:40:50;16.70;60.70
71994;DHT22;59861;50.268;8.648;2023-04-25T05:43:17;16.70;60.40
71994;DHT22;59861;50.268;8.648;2023-04-25T05:45:44;16.70;60.40
71994;DHT22;59861;50.268;8.648;2023-04-25T05:48:11;16.70;60.40
71994;DHT22;59861;50.268;8.648;2023-04-25T05:50:37;16.70;60.40
71994;DHT22;59861;50.268;8.648;2023-04-25T05:53:04;16.70;60.50
71994;DHT22;59861;50.268;8.648;2023-04-25T05:55:31;16.70;60.40
71994;DHT22;59861;50.268;8.648;2023-04-25T05:57:58;16.70;60.40
71994;DHT22;59861;50.268;8.648;2023-04-25T06:00:25;16.70;60.40
71994;DHT22;59861;50.268;8.648;2023-04-25T06:02:52;16.70;60.40
71994;DHT22;59861;50.268;8.648;2023-04-25T06:05:19;16.70;60.40
71994;DHT22;59861;50.268;8.648;2023-04-25T06:07:46;16.70;60.50
71994;DHT22;59861;50.268;8.648;2023-04-25T06:10:13;16.70;60.50
71994;DHT22;59861;50.268;8.648;2023-04-25T06:12:40;16.70;60.40
71994;DHT22;59861;50.268;8.648;2023-04-25T06:15:07;16.70;60.40
71994;DHT22;59861;50.268;8.648;2023-04-25T06:17:34;16.70;60.40
71994;DHT22;59861;50.268;8.648;2023-04-25T06:20:01;16.70;60.30
71994;DHT22;59861;50.268;8.648;2023-04-25T06:22:29;16.70;60.30
71994;DHT22;59861;50.268;8.648;2023-04-25T06:24:56;16.70;60.30
71994;DHT22;59861;50.268;8.648;2023-04-25T06:27:24;16.70;60.30
71994;DHT22;59861;50.268;8.648;2023-04-25T06:29:51;16.70;60.30
71994;DHT22;59861;50.268;8.648;2023-04-25T06:32:18;16.70;60.30
71994;DHT22;59861;50.268;8.648;2023-04-25T06:34:45;16.70;60.30
71994;DHT22;59861;50.268;8.648;2023-04-25T06:37:12;16.70;60.30
71994;DHT22;59861;50.268;8.648;2023-04-25T06:39:38;16.70;60.30
71994;DHT22;59861;50.268;8.648;2023-04-25T06:42:05;16.70;60.30
71994;DHT22;59861;50.268;8.648;2023-04-25T06:44:32;16.70;60.20
71994;DHT22;59861;50.268;8.648;2023-04-25T06:46:59;16.70;60.20
71994;DHT22;59861;50.268;8.648;2023-04-25T06:49:26;16.70;60.10
71994;DHT22;59861;50.268;8.648;2023-04-25T06:51:52;16.70;60.10
71994;DHT22;59861;50.268;8.648;2023-04-25T06:54:19;16.70;60.10
71994;DHT22;59861;50.268;8.648;2023-04-25T06:56:46;16.70;60.10
71994;DHT22;59861;50.268;8.648;2023-04-25T06:59:13;16.70;60.10
71994;DHT22;59861;50.268;8.648;2023-04-25T07:01:40;16.70;60.20
71994;DHT22;59861;50.268;8.648;2023-04-25T07:04:06;16.70;60.10
71994;DHT22;59861;50.268;8.648;2023-04-25T07:06:33;16.70;60.00
71994;DHT22;59861;50.268;8.648;2023-04-25T07:09:02;16.70;60.10
71994;DHT22;59861;50.268;8.648;2023-04-25T07:11:29;16.70;60.10
71994;DHT22;59861;50.268;8.648;2023-04-25T07:13:56;16.70;60.20
71994;DHT22;59861;50.268;8.648;2023-04-25T07:16:22;16.70;61.00
71994;DHT22;59861;50.268;8.648;2023-04-25T07:18:49;16.70;60.10
71994;DHT22;59861;50.268;8.648;2023-04-25T07:21:16;16.70;60.00
71994;DHT22;59861;50.268;8.648;2023-04-25T07:23:43;16.70;60.30
71994;DHT22;59861;50.268;8.648;2023-04-25T07:26:10;16.60;60.00
71994;DHT22;59861;50.268;8.648;2023-04-25T07:28:36;16.70;60.00
71994;DHT22;59861;50.268;8.648;2023-04-25T07:31:03;16.70;60.10
71994;DHT22;59861;50.268;8.648;2023-04-25T07:33:31;16.70;60.00
71994;DHT22;59861;50.268;8.648;2023-04-25T07:38:44;16.60;60.00
71994;DHT22;59861;50.268;8.648;2023-04-25T07:41:10;16.60;60.00
71994;DHT22;59861;50.268;8.648;2023-04-25T07:43:37;16.60;60.00
71994;DHT22;59861;50.268;8.648;2023-04-25T07:46:04;16.60;60.00
71994;DHT22;59861;50.268;8.648;2023-04-25T07:48:31;16.60;60.10
71994;DHT22;59861;50.268;8.648;2023-04-25T07:50:58;16.60;60.10
71994;DHT22;59861;50.268;8.648;2023-04-25T07:53:24;16.60;60.10
71994;DHT22;59861;50.268;8.648;2023-04-25T07:55:51;16.60;60.00
71994;DHT22;59861;50.268;8.648;2023-04-25T07:58:18;16.60;60.10
71994;DHT22;59861;50.268;8.648;2023-04-25T08:00:47;16.60;60.20
71994;DHT22;59861;50.268;8.648;2023-04-25T08:03:14;16.60;60.20
71994;DHT22;59861;50.268;8.648;2023-04-25T08:05:41;16.60;60.10
71994;DHT22;59861;50.268;8.648;2023-04-25T08:08:08;16.60;60.00
71994;DHT22;59861;50.268;8.648;2023-04-25T08:10:35;16.60;60.10
71994;DHT22;59861;50.268;8.648;2023-04-25T08:13:02;16.60;59.90
71994;DHT22;59861;50.268;8.648;2023-04-25T08:15:28;16.60;60.00
71994;DHT22;59861;50.268;8.648;2023-04-25T08:17:55;16.60;60.00
71994;DHT22;59861;50.268;8.648;2023-04-25T08:20:22;16.60;59.90
71994;DHT22;59861;50.268;8.648;2023-04-25T08:22:49;16.60;59.90
71994;DHT22;59861;50.268;8.648;2023-04-25T08:25:16;16.60;59.90
71994;DHT22;59861;50.268;8.648;2023-04-25T08:27:43;16.60;59.90
71994;DHT22;59861;50.268;8.648;2023-04-25T08:30:10;16.60;59.90
71994;DHT22;59861;50.268;8.648;2023-04-25T08:32:37;16.60;60.00
71994;DHT22;59861;50.268;8.648;2023-04-25T08:35:06;16.50;59.80
71994;DHT22;59861;50.268;8.648;2023-04-25T08:37:34;16.50;59.90
71994;DHT22;59861;50.268;8.648;2023-04-25T08:40:02;16.50;59.90
71994;DHT22;59861;50.268;8.648;2023-04-25T08:42:30;16.60;59.90
71994;DHT22;59861;50.268;8.648;2023-04-25T08:44:57;16.60;59.90
71994;DHT22;59861;50.268;8.648;2023-04-25T08:47:25;16.60;59.90
71994;DHT22;59861;50.268;8.648;2023-04-25T08:49:53;16.50;59.90
71994;DHT22;59861;50.268;8.648;2023-04-25T08:52:25;16.50;59.80
71994;DHT22;59861;50.268;8.648;2023-04-25T08:54:49;16.50;60.70
71994;DHT22;59861;50.268;8.648;2023-04-25T08:57:17;16.50;59.90
71994;DHT22;59861;50.268;8.648;2023-04-25T08:59:45;16.50;59.90
71994;DHT22;59861;50.268;8.648;2023-04-25T09:02:12;16.50;59.90
71994;DHT22;59861;50.268;8.648;2023-04-25T09:04:42;16.50;59.80
71994;DHT22;59861;50.268;8.648;2023-04-25T09:07:09;16.50;59.90
71994;DHT22;59861;50.268;8.648;2023-04-25T09:09:36;16.50;59.80
71994;DHT22;59861;50.268;8.648;2023-04-25T09:12:03;16.50;59.90
71994;DHT22;59861;50.268;8.648;2023-04-25T09:14:30;16.50;59.80
71994;DHT22;59861;50.268;8.648;2023-04-25T09:19:26;16.50;59.80
71994;DHT22;59861;50.268;8.648;2023-04-25T09:22:01;16.50;59.80
71994;DHT22;59861;50.268;8.648;2023-04-25T09:24:42;16.50;59.80
71994;DHT22;59861;50.268;8.648;2023-04-25T09:27:05;16.50;59.80
71994;DHT22;59861;50.268;8.648;2023-04-25T09:29:33;16.50;59.70
71994;DHT22;59861;50.268;8.648;2023-04-25T09:32:22;16.50;59.70
71994;DHT22;59861;50.268;8.648;2023-04-25T09:34:29;16.50;59.70
71994;DHT22;59861;50.268;8.648;2023-04-25T09:37:01;16.50;59.80
71994;DHT22;59861;50.268;8.648;2023-04-25T09:39:28;16.50;59.70
71994;DHT22;59861;50.268;8.648;2023-04-25T09:41:54;16.50;59.80
71994;DHT22;59861;50.268;8.648;2023-04-25T09:44:23;16.40;59.60
71994;DHT22;59861;50.268;8.648;2023-04-25T09:46:50;16.40;59.60
71994;DHT22;59861;50.268;8.648;2023-04-25T09:49:20;16.50;59.70
71994;DHT22;59861;50.268;8.648;2023-04-25T09:51:56;16.50;59.60
71994;DHT22;59861;50.268;8.648;2023-04-25T09:54:23;16.50;59.70
71994;DHT22;59861;50.268;8.648;2023-04-25T09:56:53;16.50;59.60
71994;DHT22;59861;50.268;8.648;2023-04-25T09:59:21;16.50;59.60
71994;DHT22;59861;50.268;8.648;2023-04-25T10:01:49;16.40;59.50
71994;DHT22;59861;50.268;8.648;2023-04-25T10:04:19;16.40;59.60
71994;DHT22;59861;50.268;8.648;2023-04-25T10:06:45;16.40;59.60
71994;DHT22;59861;50.268;8.648;2023-04-25T10:09:12;16.40;59.50
71994;DHT22;59861;50.268;8.648;2023-04-25T10:11:39;16.50;59.60
71994;DHT22;59861;50.268;8.648;2023-04-25T10:14:07;16.50;59.60
71994;DHT22;59861;50.268;8.648;2023-04-25T10:16:33;16.40;59.50
71994;DHT22;59861;50.268;8.648;2023-04-25T10:19:01;16.50;59.60
71994;DHT22;59861;50.268;8.648;2023-04-25T10:21:28;16.40;59.40
71994;DHT22;59861;50.268;8.648;2023-04-25T10:23:57;16.50;60.00
71994;DHT22;59861;50.268;8.648;2023-04-25T10:26:24;16.40;59.50
71994;DHT22;59861;50.268;8.648;2023-04-25T10:29:00;16.50;59.50
71994;DHT22;59861;50.268;8.648;2023-04-25T10:31:29;16.40;59.50
71994;DHT22;59861;50.268;8.648;2023-04-25T10:33:56;16.40;59.40
71994;DHT22;59861;50.268;8.648;2023-04-25T10:36:23;16.40;59.50
71994;DHT22;59861;50.268;8.648;2023-04-25T10:38:52;16.40;59.50
71994;DHT22;59861;50.268;8.648;2023-04-25T10:41:20;16.40;59.50
71994;DHT22;59861;50.268;8.648;2023-04-25T10:43:48;16.40;59.50
71994;DHT22;59861;50.268;8.648;2023-04-25T10:46:26;16.40;60.10
71994;DHT22;59861;50.268;8.648;2023-04-25T10:48:54;16.40;59.50
71994;DHT22;59861;50.268;8.648;2023-04-25T10:51:22;16.40;59.40
71994;DHT22;59861;50.268;8.648;2023-04-25T10:56:24;16.40;59.40
71994;DHT22;59861;50.268;8.648;2023-04-25T10:58:51;16.40;59.50
71994;DHT22;59861;50.268;8.648;2023-04-25T11:01:21;16.40;59.40
71994;DHT22;59861;50.268;8.648;2023-04-25T11:03:57;16.40;59.40
71994;DHT22;59861;50.268;8.648;2023-04-25T11:06:27;16.40;59.40
71994;DHT22;59861;50.268;8.648;2023-04-25T11:08:49;16.40;59.40
71994;DHT22;59861;50.268;8.648;2023-04-25T11:11:17;16.40;59.40
71994;DHT22;59861;50.268;8.648;2023-04-25T11:13:47;16.40;59.40
71994;DHT22;59861;50.268;8.648;2023-04-25T11:16:12;16.40;59.40
71994;DHT22;59861;50.268;8.648;2023-04-25T11:18:42;16.40;59.60
71994;DHT22;59861;50.268;8.648;2023-04-25T11:21:10;16.40;59.40
71994;DHT22;59861;50.268;8.648;2023-04-25T11:23:37;16.40;59.40
71994;DHT22;59861;50.268;8.648;2023-04-25T11:26:03;16.40;59.40
71994;DHT22;59861;50.268;8.648;2023-04-25T11:28:30;16.40;59.60
71994;DHT22;59861;50.268;8.648;2023-04-25T11:30:57;16.40;59.50
71994;DHT22;59861;50.268;8.648;2023-04-25T11:33:24;16.40;59.40
71994;DHT22;59861;50.268;8.648;2023-04-25T11:35:53;16.30;59.40
71994;DHT22;59861;50.268;8.648;2023-04-25T11:38:21;16.40;59.50
71994;DHT22;59861;50.268;8.648;2023-04-25T11:40:54;16.40;59.50
71994;DHT22;59861;50.268;8.648;2023-04-25T11:43:21;16.40;59.40
71994;DHT22;59861;50.268;8.648;2023-04-25T11:45:49;16.40;59.40
71994;DHT22;59861;50.268;8.648;2023-04-25T11:48:18;16.40;59.40
71994;DHT22;59861;50.268;8.648;2023-04-25T11:50:46;16.40;59.40
71994;DHT22;59861;50.268;8.648;2023-04-25T11:53:12;16.30;59.40
71994;DHT22;59861;50.268;8.648;2023-04-25T11:55:39;16.30;59.40
71994;DHT22;59861;50.268;8.648;2023-04-25T11:58:06;16.40;59.50
71994;DHT22;59861;50.268;8.648;2023-04-25T12:00:34;16.30;59.40
71994;DHT22;59861;50.268;8.648;2023-04-25T12:03:01;16.30;59.40
71994;DHT22;59861;50.268;8.648;2023-04-25T12:05:29;16.30;59.50
71994;DHT22;59861;50.268;8.648;2023-04-25T12:07:58;16.30;59.40
71994;DHT22;59861;50.268;8.648;2023-04-25T12:10:25;16.40;59.50
71994;DHT22;59861;50.268;8.648;2023-04-25T12:12:51;16.40;59.40
71994;DHT22;59861;50.268;8.648;2023-04-25T12:15:25;16.40;59.40
71994;DHT22;59861;50.268;8.648;2023-04-25T12:17:52;16.40;59.30
71994;DHT22;59861;50.268;8.648;2023-04-25T12:20:21;16.40;59.30
71994;DHT22;59861;50.268;8.648;2023-04-25T12:22:51;16.40;59.30
71994;DHT22;59861;50.268;8.648;2023-04-25T12:25:34;16.40;59.30
71994;DHT22;59861;50.268;8.648;2023-04-25T12:28:17;16.40;59.40
71994;DHT22;59861;50.268;8.648;2023-04-25T12:30:57;16.40;59.40
71994;DHT22;59861;50.268;8.648;2023-04-25T12:33:25;16.40;59.40
71994;DHT22;59861;50.268;8.648;2023-04-25T12:35:55;16.50;59.40
71994;DHT22;59861;50.268;8.648;2023-04-25T12:38:27;16.40;59.30
71994;DHT22;59861;50.268;8.648;2023-04-25T12:40:56;16.40;59.30
71994;DHT22;59861;50.268;8.648;2023-04-25T12:43:22;16.50;59.40
71994;DHT22;59861;50.268;8.648;2023-04-25T12:45:50;16.40;59.40
71994;DHT22;59861;50.268;8.648;2023-04-25T12:48:17;16.50;59.40
71994;DHT22;59861;50.268;8.648;2023-04-25T12:50:44;16.40;59.80
71994;DHT22;59861;50.268;8.648;2023-04-25T12:53:11;16.40;59.40
71994;DHT22;59861;50.268;8.648;2023-04-25T12:55:38;16.40;59.40
71994;DHT22;59861;50.268;8.648;2023-04-25T12:58:05;16.40;59.30
71994;DHT22;59861;50.268;8.648;2023-04-25T13:00:31;16.40;59.30
71994;DHT22;59861;50.268;8.648;2023-04-25T13:02:58;16.40;59.30
71994;DHT22;59861;50.268;8.648;2023-04-25T13:05:25;16.40;59.30
71994;DHT22;59861;50.268;8.648;2023-04-25T13:07:52;16.40;59.30
71994;DHT22;59861;50.268;8.648;2023-04-25T13:10:19;16.40;59.40
71994;DHT22;59861;50.268;8.648;2023-04-25T13:12:46;16.50;59.40
71994;DHT22;59861;50.268;8.648;2023-04-25T13:15:12;16.40;59.30
71994;DHT22;59861;50.268;8.648;2023-04-25T13:17:41;16.40;59.40
71994;DHT22;59861;50.268;8.648;2023-04-25T13:20:08;16.40;59.30
71994;DHT22;59861;50.268;8.648;2023-04-25T13:22:37;16.40;59.30
71994;DHT22;59861;50.268;8.648;2023-04-25T13:25:04;16.40;59.30
71994;DHT22;59861;50.268;8.648;2023-04-25T13:27:31;16.40;59.30
71994;DHT22;59861;50.268;8.648;2023-04-25T13:30:00;16.40;59.40
71994;DHT22;59861;50.268;8.648;2023-04-25T13:32:31;16.40;59.30
71994;DHT22;59861;50.268;8.648;2023-04-25T13:34:58;16.40;59.50
71994;DHT22;59861;50.268;8.648;2023-04-25T13:37:25;16.40;59.30
71994;DHT22;59861;50.268;8.648;2023-04-25T13:39:51;16.40;59.30
71994;DHT22;59861;50.268;8.648;2023-04-25T13:42:19;16.40;59.30
71994;DHT22;59861;50.268;8.648;2023-04-25T13:44:46;16.40;59.30
71994;DHT22;59861;50.268;8.648;2023-04-25T13:47:13;16.40;59.30
71994;DHT22;59861;50.268;8.648;2023-04-25T13:49:40;16.40;59.30
71994;DHT22;59861;50.268;8.648;2023-04-25T13:52:07;16.40;59.30
71994;DHT22;59861;50.268;8.648;2023-04-25T13:54:34;16.40;59.30
71994;DHT22;59861;50.268;8.648;2023-04-25T13:57:01;16.40;59.30
71994;DHT22;59861;50.268;8.648;2023-04-25T13:59:27;16.40;59.40
71994;DHT22;59861;50.268;8.648;2023-04-25T14:01:54;16.40;59.30
71994;DHT22;59861;50.268;8.648;2023-04-25T14:04:21;16.40;59.30
71994;DHT22;59861;50.268;8.648;2023-04-25T14:06:48;16.40;59.40
71994;DHT22;59861;50.268;8.648;2023-04-25T14:09:15;16.40;59.30
71994;DHT22;59861;50.268;8.648;2023-04-25T14:11:42;16.40;59.40
71994;DHT22;59861;50.268;8.648;2023-04-25T14:14:08;16.40;59.30
71994;DHT22;59861;50.268;8.648;2023-04-25T14:16:35;16.40;59.30
71994;DHT22;59861;50.268;8.648;2023-04-25T14:19:02;16.40;59.40
71994;DHT22;59861;50.268;8.648;2023-04-25T14:21:29;16.40;59.40
71994;DHT22;59861;50.268;8.648;2023-04-25T14:23:57;16.40;59.40
71994;DHT22;59861;50.268;8.648;2023-04-25T14:26:24;16.40;59.40
71994;DHT22;59861;50.268;8.648;2023-04-25T14:28:51;16.40;59.40
71994;DHT22;59861;50.268;8.648;2023-04-25T14:31:18;16.40;59.40
71994;DHT22;59861;50.268;8.648;2023-04-25T14:33:45;16.40;59.40
71994;DHT22;59861;50.268;8.648;2023-04-25T14:36:12;16.30;59.50
71994;DHT22;59861;50.268;8.648;2023-04-25T14:38:40;16.30;59.60
71994;DHT22;59861;50.268;8.648;2023-04-25T14:41:06;16.30;59.70
71994;DHT22;59861;50.268;8.648;2023-04-25T14:43:33;16.30;59.60
71994;DHT22;59861;50.268;8.648;2023-04-25T14:46:01;16.30;59.70
71994;DHT22;59861;50.268;8.648;2023-04-25T14:48:28;16.30;59.70
71994;DHT22;59861;50.268;8.648;2023-04-25T14:50:55;16.30;59.70
71994;DHT22;59861;50.268;8.648;2023-04-25T14:53:25;16.40;59.70
71994;DHT22;59861;50.268;8.648;2023-04-25T14:55:52;16.40;59.70
71994;DHT22;59861;50.268;8.648;2023-04-25T14:58:19;16.40;59.70
71994;DHT22;59861;50.268;8.648;2023-04-25T15:00:46;16.40;59.70
71994;DHT22;59861;50.268;8.648;2023-04-25T15:03:13;16.40;59.80
71994;DHT22;59861;50.268;8.648;2023-04-25T15:05:41;16.40;59.70
71994;DHT22;59861;50.268;8.648;2023-04-25T15:08:08;16.40;59.80
71994;DHT22;59861;50.268;8.648;2023-04-25T15:10:36;16.50;59.70
71994;DHT22;59861;50.268;8.648;2023-04-25T15:13:03;16.50;59.70
71994;DHT22;59861;50.268;8.648;2023-04-25T15:15:30;16.50;60.50
71994;DHT22;59861;50.268;8.648;2023-04-25T15:17:57;16.50;59.70
71994;DHT22;59861;50.268;8.648;2023-04-25T15:20:24;16.50;59.70
71994;DHT22;59861;50.268;8.648;2023-04-25T15:22:51;16.50;59.80
71994;DHT22;59861;50.268;8.648;2023-04-25T15:25:17;16.50;59.70
71994;DHT22;59861;50.268;8.648;2023-04-25T15:27:44;16.50;59.70
71994;DHT22;59861;50.268;8.648;2023-04-25T15:30:13;16.50;59.70
71994;DHT22;59861;50.268;8.648;2023-04-25T15:32:41;16.60;59.70
71994;DHT22;59861;50.268;8.648;2023-04-25T15:35:08;16.60;59.70
71994;DHT22;59861;50.268;8.648;2023-04-25T15:40:21;16.60;59.60
71994;DHT22;59861;50.268;8.648;2023-04-25T15:42:48;16.60;59.70